Time;durP1;ratioP1;P1;durP2;ratioP2;P2;SDS_P1;SDS_P2;PMS_P1;PMS_P2;Temp;Humidity;BMP_temperature;BMP_pressure;BME280_temperature;BME280_humidity;BME280_pressure;Samples;Min_cycle;Max_cycle;Signal;HPM_P1;HPM_P2
2023/05/09 00:00:28;;;;;;;;;;;10.83;6.08;;;;;;2674846;76;20331;-91
2023/05/09 00:03:57;;;;;;;;;;;10.77;5.73;;;;;;2674386;76;20775;-92
2023/05/09 00:07:25;;;;;;;;;;;10.69;6.21;;;;;;2674784;76;20323;-91
2023/05/09 00:10:53;;;;;;;;;;;10.60;6.31;;;;;;2675677;76;20341;-92
2023/05/09 00:14:23;;;;;;;;;;;10.55;6.73;;;;;;2674188;76;20708;-91
2023/05/09 00:17:51;;;;;;;;;;;10.52;6.42;;;;;;2674668;76;20360;-92
2023/05/09 00:21:19;;;;;;;;;;;10.53;6.44;;;;;;2675045;76;20758;-92
2023/05/09 00:24:48;;;;;;;;;;;10.49;6.32;;;;;;2674535;76;20333;-91
2023/05/09 00:28:16;;;;;;;;;;;10.42;6.21;;;;;;2674632;76;20791;-92
2023/05/09 00:31:44;;;;;;;;;;;10.39;6.22;;;;;;2674331;76;20342;-91
2023/05/09 00:35:12;;;;;;;;;;;10.33;6.22;;;;;;2675203;76;20340;-91
2023/05/09 00:38:40;;;;;;;;;;;10.27;5.94;;;;;;2675093;76;20336;-92
2023/05/09 00:42:08;;;;;;;;;;;10.22;5.80;;;;;;2675052;76;20470;-92
2023/05/09 00:45:36;;;;;;;;;;;10.15;5.78;;;;;;2674462;76;20333;-92
2023/05/09 00:49:04;;;;;;;;;;;10.09;5.85;;;;;;2676119;76;20342;-91
2023/05/09 00:52:32;;;;;;;;;;;10.06;5.80;;;;;;2675884;76;20368;-92
2023/05/09 00:56:00;;;;;;;;;;;10.06;5.76;;;;;;2675009;76;20338;-92
2023/05/09 00:59:29;;;;;;;;;;;10.03;5.76;;;;;;2675975;76;20334;-92
2023/05/09 01:02:57;;;;;;;;;;;10.01;5.75;;;;;;2676531;76;20331;-92
2023/05/09 01:06:25;;;;;;;;;;;9.99;5.89;;;;;;2675182;76;20865;-91
2023/05/09 01:09:53;;;;;;;;;;;9.94;6.02;;;;;;2676468;76;20721;-91
2023/05/09 01:13:21;;;;;;;;;;;9.90;5.83;;;;;;2676623;76;20361;-91
2023/05/09 01:16:49;;;;;;;;;;;9.86;5.67;;;;;;2675840;76;20363;-92
2023/05/09 01:20:17;;;;;;;;;;;9.80;5.52;;;;;;2675409;76;20809;-91
2023/05/09 01:23:48;;;;;;;;;;;9.76;6.25;;;;;;2675853;76;20767;-92
2023/05/09 01:27:17;;;;;;;;;;;9.74;6.78;;;;;;2676571;76;20350;-92
2023/05/09 01:30:45;;;;;;;;;;;9.74;6.57;;;;;;2675137;76;20320;-92
2023/05/09 01:34:13;;;;;;;;;;;9.75;6.66;;;;;;2676193;76;20377;-92
2023/05/09 01:37:41;;;;;;;;;;;9.75;6.79;;;;;;2676073;76;20783;-92
2023/05/09 01:41:09;;;;;;;;;;;9.76;6.86;;;;;;2676473;76;20705;-91
2023/05/09 01:44:39;;;;;;;;;;;9.77;7.04;;;;;;2676483;76;20331;-92
2023/05/09 01:48:07;;;;;;;;;;;9.76;6.93;;;;;;2676975;76;20352;-92
2023/05/09 01:51:35;;;;;;;;;;;9.71;6.70;;;;;;2676200;76;20314;-91
2023/05/09 01:55:03;;;;;;;;;;;9.71;6.50;;;;;;2676211;76;21684;-91
2023/05/09 01:58:31;;;;;;;;;;;9.70;6.41;;;;;;2675995;76;20392;-92
2023/05/09 02:01:59;;;;;;;;;;;9.69;6.42;;;;;;2675563;76;20444;-91
2023/05/09 02:05:28;;;;;;;;;;;9.70;6.32;;;;;;2676188;76;20656;-92
2023/05/09 02:08:56;;;;;;;;;;;9.67;6.31;;;;;;2675627;76;20326;-91
2023/05/09 02:12:24;;;;;;;;;;;9.63;6.16;;;;;;2675898;76;20328;-91
2023/05/09 02:15:52;;;;;;;;;;;9.57;5.99;;;;;;2675084;76;20354;-92
2023/05/09 02:19:20;;;;;;;;;;;9.52;5.97;;;;;;2675517;76;20344;-92
2023/05/09 02:22:48;;;;;;;;;;;9.46;5.89;;;;;;2675667;76;20348;-92
2023/05/09 02:26:16;;;;;;;;;;;9.40;5.91;;;;;;2675094;76;20340;-91
2023/05/09 02:29:45;;;;;;;;;;;9.36;6.21;;;;;;2675245;76;20335;-91
2023/05/09 02:33:13;;;;;;;;;;;9.27;6.50;;;;;;2674801;76;20359;-92
2023/05/09 02:36:44;;;;;;;;;;;9.26;6.34;;;;;;2675345;76;20371;-91
2023/05/09 02:40:12;;;;;;;;;;;9.23;6.23;;;;;;2675493;76;20327;-92
2023/05/09 02:43:40;;;;;;;;;;;9.18;6.11;;;;;;2675940;76;20381;-92
2023/05/09 02:47:08;;;;;;;;;;;9.10;6.22;;;;;;2675350;76;20336;-92
2023/05/09 02:50:41;;;;;;;;;;;9.07;6.44;;;;;;2674745;76;20338;-91
2023/05/09 02:54:09;;;;;;;;;;;9.02;6.76;;;;;;2675507;76;20341;-92
2023/05/09 02:57:37;;;;;;;;;;;9.01;6.57;;;;;;2675497;76;20345;-92
2023/05/09 03:01:05;;;;;;;;;;;8.97;6.63;;;;;;2675008;76;20376;-92
2023/05/09 03:04:33;;;;;;;;;;;8.97;7.01;;;;;;2675263;76;20342;-92
2023/05/09 03:08:01;;;;;;;;;;;8.91;7.43;;;;;;2675543;76;20330;-92
2023/05/09 03:11:29;;;;;;;;;;;8.88;7.63;;;;;;2675327;76;20347;-92
2023/05/09 03:14:57;;;;;;;;;;;8.88;7.89;;;;;;2676096;76;20341;-92
2023/05/09 03:18:25;;;;;;;;;;;8.85;7.90;;;;;;2674931;76;20371;-92
2023/05/09 03:21:53;;;;;;;;;;;8.82;7.85;;;;;;2675353;76;20329;-93
2023/05/09 03:25:22;;;;;;;;;;;8.79;7.73;;;;;;2676175;76;20354;-92
2023/05/09 03:28:50;;;;;;;;;;;8.80;7.62;;;;;;2676509;76;20330;-92
2023/05/09 03:32:18;;;;;;;;;;;8.79;7.77;;;;;;2675355;76;20324;-92
2023/05/09 03:35:46;;;;;;;;;;;8.78;7.55;;;;;;2675104;76;20348;-91
2023/05/09 03:39:14;;;;;;;;;;;8.74;7.25;;;;;;2676379;76;20358;-91
2023/05/09 03:42:42;;;;;;;;;;;8.68;7.05;;;;;;2676279;76;20324;-91
2023/05/09 03:46:10;;;;;;;;;;;8.67;6.87;;;;;;2676381;76;20331;-90
2023/05/09 03:49:38;;;;;;;;;;;8.67;7.11;;;;;;2675842;76;20327;-92
2023/05/09 03:53:06;;;;;;;;;;;8.70;7.87;;;;;;2676341;76;20343;-92
2023/05/09 03:56:34;;;;;;;;;;;8.75;8.10;;;;;;2675457;76;20382;-91
2023/05/09 04:00:04;;;;;;;;;;;8.88;8.15;;;;;;2675656;76;20324;-91
2023/05/09 04:03:32;;;;;;;;;;;8.91;7.85;;;;;;2675683;76;20331;-92
2023/05/09 04:07:00;;;;;;;;;;;8.89;8.05;;;;;;2675408;76;20387;-92
2023/05/09 04:10:28;;;;;;;;;;;8.93;7.85;;;;;;2675294;76;20349;-91
2023/05/09 04:13:57;;;;;;;;;;;8.96;7.49;;;;;;2675609;76;20325;-91
2023/05/09 04:17:25;;;;;;;;;;;9.03;7.72;;;;;;2678616;76;20384;-88
2023/05/09 04:20:53;;;;;;;;;;;9.09;7.96;;;;;;2676491;76;20886;-92
2023/05/09 04:24:21;;;;;;;;;;;9.15;8.03;;;;;;2675203;76;20349;-91
2023/05/09 04:27:49;;;;;;;;;;;9.22;7.76;;;;;;2674900;76;20812;-91
2023/05/09 04:31:18;;;;;;;;;;;9.35;7.91;;;;;;2674171;76;20493;-91
2023/05/09 04:34:46;;;;;;;;;;;9.46;8.24;;;;;;2675550;76;20351;-91
2023/05/09 04:38:15;;;;;;;;;;;9.53;8.43;;;;;;2674896;76;20334;-91
2023/05/09 04:41:45;;;;;;;;;;;9.65;8.71;;;;;;2675682;76;20324;-92
2023/05/09 04:45:14;;;;;;;;;;;9.79;8.82;;;;;;2676455;76;20327;-92
2023/05/09 04:48:42;;;;;;;;;;;9.89;8.80;;;;;;2674933;76;20323;-92
2023/05/09 04:52:10;;;;;;;;;;;9.96;9.05;;;;;;2674571;76;20318;-93
2023/05/09 04:55:38;;;;;;;;;;;10.11;9.07;;;;;;2676055;76;20785;-94
2023/05/09 04:59:06;;;;;;;;;;;10.23;9.14;;;;;;2684025;76;20501;-95
2023/05/09 05:02:34;;;;;;;;;;;10.37;9.14;;;;;;2676019;76;20350;-93
2023/05/09 05:06:03;;;;;;;;;;;10.53;8.96;;;;;;2675759;76;20356;-94
2023/05/09 05:09:31;;;;;;;;;;;10.71;8.76;;;;;;2678521;76;20303;-94
2023/05/09 05:12:59;;;;;;;;;;;10.84;8.53;;;;;;2679293;76;20308;-95
2023/05/09 05:16:27;;;;;;;;;;;11.03;8.38;;;;;;2679380;76;20342;-94
2023/05/09 05:19:55;;;;;;;;;;;11.18;8.08;;;;;;2679344;76;20320;-93
2023/05/09 05:23:24;;;;;;;;;;;11.27;7.74;;;;;;2678941;76;20369;-94
2023/05/09 05:26:52;;;;;;;;;;;11.39;7.22;;;;;;2678293;76;20303;-93
2023/05/09 05:30:20;;;;;;;;;;;11.52;6.77;;;;;;2675141;76;20319;-94
2023/05/09 05:33:48;;;;;;;;;;;11.60;6.26;;;;;;2679127;76;20291;-95
2023/05/09 05:37:16;;;;;;;;;;;11.71;6.12;;;;;;2678268;76;20314;-96
2023/05/09 05:40:44;;;;;;;;;;;11.72;5.14;;;;;;2678007;76;20331;-94
2023/05/09 05:44:12;;;;;;;;;;;11.88;4.66;;;;;;2678508;76;20307;-94
2023/05/09 05:47:40;;;;;;;;;;;11.92;4.15;;;;;;2678304;76;20315;-96
2023/05/09 05:51:09;;;;;;;;;;;12.15;4.12;;;;;;2677645;76;20323;-94
2023/05/09 05:54:37;;;;;;;;;;;12.27;3.50;;;;;;2677541;76;20748;-94
2023/05/09 05:58:05;;;;;;;;;;;12.40;2.65;;;;;;2678550;76;20362;-94
2023/05/09 06:01:33;;;;;;;;;;;12.59;1.90;;;;;;2680206;76;20328;-94
2023/05/09 06:05:02;;;;;;;;;;;12.78;1.52;;;;;;2677895;76;20305;-94
2023/05/09 06:08:30;;;;;;;;;;;12.87;1.12;;;;;;2677408;76;20331;-94
2023/05/09 06:12:03;;;;;;;;;;;13.04;0.87;;;;;;2677709;76;20319;-95
2023/05/09 06:15:28;;;;;;;;;;;13.21;0.66;;;;;;2677494;76;20329;-95
2023/05/09 06:18:56;;;;;;;;;;;13.40;0.63;;;;;;2677143;76;20307;-94
2023/05/09 06:22:25;;;;;;;;;;;13.64;0.48;;;;;;2677938;76;20677;-94
2023/05/09 06:25:53;;;;;;;;;;;13.71;0.10;;;;;;2677564;76;20836;-95
2023/05/09 06:29:21;;;;;;;;;;;13.74;-0.32;;;;;;2675617;76;20816;-93
2023/05/09 06:32:49;;;;;;;;;;;13.96;-0.25;;;;;;2675173;76;20766;-94
2023/05/09 06:36:17;;;;;;;;;;;14.10;-0.78;;;;;;2675275;76;20809;-93
2023/05/09 06:39:45;;;;;;;;;;;14.33;-1.25;;;;;;2675058;76;20703;-94
2023/05/09 06:43:13;;;;;;;;;;;14.64;-1.41;;;;;;2675435;76;20330;-93
2023/05/09 06:46:41;;;;;;;;;;;14.68;-2.51;;;;;;2675415;76;20365;-93
2023/05/09 06:50:09;;;;;;;;;;;14.71;-3.26;;;;;;2675159;76;20328;-93
2023/05/09 06:53:37;;;;;;;;;;;14.79;-3.22;;;;;;2675174;76;20347;-93
2023/05/09 06:57:05;;;;;;;;;;;15.16;-3.07;;;;;;2675932;76;20356;-94
2023/05/09 07:00:34;;;;;;;;;;;15.55;-3.16;;;;;;2675668;76;20399;-94
2023/05/09 07:04:02;;;;;;;;;;;15.81;-3.90;;;;;;2675175;76;20693;-93
2023/05/09 07:07:30;;;;;;;;;;;16.06;-4.48;;;;;;2676414;76;20355;-94
2023/05/09 07:10:58;;;;;;;;;;;16.27;-5.40;;;;;;2675591;76;20351;-94
2023/05/09 07:14:26;;;;;;;;;;;16.64;-5.96;;;;;;2675449;76;20309;-94
2023/05/09 07:17:55;;;;;;;;;;;17.13;118.12;;;;;;2675685;76;20331;-93
2023/05/09 07:21:23;;;;;;;;;;;17.39;116.98;;;;;;2676197;76;20330;-94
2023/05/09 07:24:51;;;;;;;;;;;17.69;116.73;;;;;;2675555;76;20347;-93
2023/05/09 07:28:19;;;;;;;;;;;18.03;116.86;;;;;;2675968;76;20315;-94
2023/05/09 07:31:47;;;;;;;;;;;18.30;116.32;;;;;;2675946;76;20781;-94
2023/05/09 07:35:15;;;;;;;;;;;18.36;114.83;;;;;;2676276;76;20898;-94
2023/05/09 07:38:43;;;;;;;;;;;18.53;114.70;;;;;;2675270;76;20370;-94
2023/05/09 07:42:11;;;;;;;;;;;18.65;114.03;;;;;;2676003;76;20359;-94
2023/05/09 07:45:39;;;;;;;;;;;18.97;114.23;;;;;;2675004;76;20303;-93
2023/05/09 07:49:07;;;;;;;;;;;18.82;113.40;;;;;;2676295;76;20347;-94
2023/05/09 07:52:36;;;;;;;;;;;18.79;112.88;;;;;;2675976;76;20372;-94
2023/05/09 07:56:05;;;;;;;;;;;18.91;112.78;;;;;;2676017;76;20322;-93
2023/05/09 07:59:33;;;;;;;;;;;18.99;112.97;;;;;;2675799;76;20336;-93
2023/05/09 08:03:01;;;;;;;;;;;19.10;113.45;;;;;;2675783;76;20342;-93
2023/05/09 08:06:32;;;;;;;;;;;18.86;112.28;;;;;;2675740;76;20314;-94
2023/05/09 08:10:01;;;;;;;;;;;18.85;112.76;;;;;;2675202;76;20800;-93
2023/05/09 08:13:29;;;;;;;;;;;18.86;113.22;;;;;;2675645;76;20351;-94
2023/05/09 08:16:57;;;;;;;;;;;18.62;113.35;;;;;;2675715;76;20334;-94
2023/05/09 08:20:25;;;;;;;;;;;18.46;113.87;;;;;;2675706;76;20347;-93
2023/05/09 08:23:55;;;;;;;;;;;18.14;114.25;;;;;;2675391;76;20956;-93
2023/05/09 08:27:23;;;;;;;;;;;17.81;114.92;;;;;;2675629;76;20361;-94
2023/05/09 08:30:51;;;;;;;;;;;17.53;115.48;;;;;;2675306;76;20355;-94
2023/05/09 08:34:20;;;;;;;;;;;17.33;115.79;;;;;;2675094;76;20319;-94
2023/05/09 08:37:48;;;;;;;;;;;17.22;116.16;;;;;;2675100;76;20358;-94
2023/05/09 08:41:16;;;;;;;;;;;17.20;116.57;;;;;;2675225;76;20305;-94
2023/05/09 08:44:44;;;;;;;;;;;17.13;116.96;;;;;;2675420;76;20345;-93
2023/05/09 08:48:12;;;;;;;;;;;17.15;117.04;;;;;;2675655;76;20302;-93
2023/05/09 08:51:40;;;;;;;;;;;17.22;117.23;;;;;;2675676;76;20346;-93
2023/05/09 08:55:08;;;;;;;;;;;17.26;117.57;;;;;;2675978;76;20356;-94
2023/05/09 08:58:36;;;;;;;;;;;17.30;117.48;;;;;;2675689;76;20326;-94
2023/05/09 09:02:05;;;;;;;;;;;17.29;117.25;;;;;;2676019;76;20336;-94
2023/05/09 09:05:35;;;;;;;;;;;17.28;117.71;;;;;;2676133;76;20331;-93
2023/05/09 09:09:08;;;;;;;;;;;17.23;117.45;;;;;;2675413;76;20303;-93
2023/05/09 09:12:33;;;;;;;;;;;17.24;117.52;;;;;;2675972;76;20296;-93
2023/05/09 09:16:01;;;;;;;;;;;17.32;118.00;;;;;;2676177;76;20913;-93
2023/05/09 09:19:29;;;;;;;;;;;17.38;117.91;;;;;;2676459;76;20359;-94
2023/05/09 09:22:58;;;;;;;;;;;17.30;117.92;;;;;;2676663;76;20778;-94
2023/05/09 09:26:30;;;;;;;;;;;17.36;118.21;;;;;;2676360;76;20318;-93
2023/05/09 09:29:56;;;;;;;;;;;17.45;118.28;;;;;;2676065;76;20753;-94
2023/05/09 09:33:24;;;;;;;;;;;17.54;118.37;;;;;;2676034;76;20355;-93
2023/05/09 09:36:52;;;;;;;;;;;17.61;118.53;;;;;;2676428;76;20983;-94
2023/05/09 09:40:23;;;;;;;;;;;17.68;118.51;;;;;;2676052;76;20334;-94
2023/05/09 09:43:51;;;;;;;;;;;17.73;118.57;;;;;;2676464;76;20371;-94
2023/05/09 09:47:19;;;;;;;;;;;17.69;118.37;;;;;;2676204;76;20350;-93
2023/05/09 09:50:47;;;;;;;;;;;17.74;118.68;;;;;;2676792;76;20298;-93
2023/05/09 09:54:15;;;;;;;;;;;17.89;118.89;;;;;;2676178;76;20311;-93
2023/05/09 09:57:44;;;;;;;;;;;17.96;118.69;;;;;;2676409;76;20331;-93
2023/05/09 10:01:15;;;;;;;;;;;17.97;118.63;;;;;;2676383;76;20334;-93
2023/05/09 10:04:47;;;;;;;;;;;18.04;118.98;;;;;;2675803;76;20319;-94
2023/05/09 10:08:16;;;;;;;;;;;18.07;118.90;;;;;;2676086;76;20742;-93
2023/05/09 10:11:44;;;;;;;;;;;18.15;118.51;;;;;;2676034;76;20316;-92
2023/05/09 10:15:12;;;;;;;;;;;18.18;118.98;;;;;;2677090;76;20309;-94
2023/05/09 10:18:40;;;;;;;;;;;18.25;-5.80;;;;;;2675744;76;20367;-94
2023/05/09 10:22:08;;;;;;;;;;;18.22;118.97;;;;;;2677051;76;20368;-93
2023/05/09 10:25:39;;;;;;;;;;;18.36;-5.95;;;;;;2675543;76;20329;-93
2023/05/09 10:29:07;;;;;;;;;;;18.49;118.86;;;;;;2674925;76;20342;-93
2023/05/09 10:32:35;;;;;;;;;;;18.65;118.95;;;;;;2675064;76;20312;-94
2023/05/09 10:36:03;;;;;;;;;;;18.71;118.75;;;;;;2675660;76;20803;-93
2023/05/09 10:39:31;;;;;;;;;;;18.82;118.66;;;;;;2675693;76;20339;-93
2023/05/09 10:42:59;;;;;;;;;;;18.87;118.18;;;;;;2676045;76;20359;-93
2023/05/09 10:46:27;;;;;;;;;;;19.00;118.27;;;;;;2676491;76;20375;-94
2023/05/09 10:49:56;;;;;;;;;;;19.07;118.13;;;;;;2676315;76;20315;-93
2023/05/09 10:57:02;;;;;;;;;;;19.09;117.86;;;;;;2678383;76;20381;-95
2023/05/09 11:00:26;;;;;;;;;;;19.25;117.44;;;;;;2677384;76;20968;-93
2023/05/09 11:03:55;;;;;;;;;;;19.39;117.56;;;;;;2677332;76;20386;-93
2023/05/09 11:07:23;;;;;;;;;;;19.55;117.44;;;;;;2675581;76;20840;-93
2023/05/09 11:10:54;;;;;;;;;;;19.55;116.63;;;;;;2676711;76;20322;-94
2023/05/09 11:14:22;;;;;;;;;;;19.62;116.57;;;;;;2675951;76;20354;-93
2023/05/09 11:17:50;;;;;;;;;;;19.59;115.80;;;;;;2677006;76;20335;-95
2023/05/09 11:21:19;;;;;;;;;;;19.83;116.52;;;;;;2678595;76;20319;-94
2023/05/09 11:24:47;;;;;;;;;;;19.99;116.73;;;;;;2677802;76;20749;-94
2023/05/09 11:28:17;;;;;;;;;;;19.97;116.26;;;;;;2676899;76;20311;-94
2023/05/09 11:31:46;;;;;;;;;;;20.20;116.00;;;;;;2676405;76;20314;-94
2023/05/09 11:39:19;;;;;;;;;;;20.53;114.98;;;;;;2674582;76;20783;-93
2023/05/09 11:42:45;;;;;;;;;;;20.61;114.70;;;;;;2674874;76;20335;-94
2023/05/09 11:47:31;;;;;;;;;;;;;;;;;;;;;
2023/05/09 11:50:24;;;;;;;;;;;;;;;;;;;;;
2023/05/09 11:53:52;;;;;;;;;;;20.98;112.94;;;;;;2676008;76;20331;-94
2023/05/09 11:57:26;;;;;;;;;;;21.00;113.42;;;;;;2675034;76;20507;-94
2023/05/09 12:00:57;;;;;;;;;;;21.04;113.83;;;;;;2674143;76;20374;-93
2023/05/09 12:04:25;;;;;;;;;;;21.19;113.40;;;;;;2673935;76;20358;-92
2023/05/09 12:07:53;;;;;;;;;;;21.44;112.92;;;;;;2672888;76;20326;-92
2023/05/09 12:11:26;;;;;;;;;;;21.66;112.17;;;;;;2673181;76;20331;-93
2023/05/09 12:14:56;;;;;;;;;;;21.70;112.34;;;;;;2673677;76;20361;-91
2023/05/09 12:18:27;;;;;;;;;;;21.89;112.09;;;;;;2674295;76;20350;-91
2023/05/09 12:21:57;;;;;;;;;;;22.14;112.10;;;;;;2676626;76;20323;-93
2023/05/09 12:25:26;;;;;;;;;;;22.27;111.05;;;;;;2673739;76;20304;-91
2023/05/09 12:28:54;;;;;;;;;;;22.52;110.41;;;;;;2677868;76;20309;-92
2023/05/09 12:32:22;;;;;;;;;;;22.78;109.55;;;;;;2674245;76;20323;-93
2023/05/09 12:35:50;;;;;;;;;;;22.88;109.01;;;;;;2674574;76;20357;-91
2023/05/09 12:39:23;;;;;;;;;;;23.03;109.40;;;;;;2673644;76;20303;-90
2023/05/09 12:42:48;;;;;;;;;;;23.10;108.77;;;;;;2673561;76;20362;-91
2023/05/09 12:46:16;;;;;;;;;;;23.06;108.43;;;;;;2674717;76;20295;-92
2023/05/09 12:49:46;;;;;;;;;;;23.24;108.25;;;;;;2675356;76;20324;-95
2023/05/09 12:53:14;;;;;;;;;;;23.28;107.67;;;;;;2683471;76;20334;-95
2023/05/09 12:56:45;;;;;;;;;;;23.62;107.58;;;;;;2680614;76;20337;-95
2023/05/09 13:00:18;;;;;;;;;;;23.55;106.63;;;;;;2680824;76;20784;-95
2023/05/09 13:03:47;;;;;;;;;;;23.50;106.69;;;;;;2677179;76;20392;-95
2023/05/09 13:07:20;;;;;;;;;;;23.53;106.34;;;;;;2674600;76;20349;-92
2023/05/09 13:10:45;;;;;;;;;;;23.58;106.33;;;;;;2674907;76;20340;-93
2023/05/09 13:14:14;;;;;;;;;;;23.71;106.61;;;;;;2674872;76;20382;-92
2023/05/09 13:17:44;;;;;;;;;;;23.81;106.77;;;;;;2674825;76;20305;-93
2023/05/09 13:21:12;;;;;;;;;;;23.83;105.96;;;;;;2675340;76;20306;-94
2023/05/09 13:24:40;;;;;;;;;;;24.00;105.32;;;;;;2674451;76;23109;-92
2023/05/09 13:28:09;;;;;;;;;;;24.04;104.18;;;;;;2674499;76;20790;-91
2023/05/09 13:31:37;;;;;;;;;;;24.41;103.73;;;;;;2675486;76;20760;-94
2023/05/09 13:35:13;;;;;;;;;;;24.59;102.73;;;;;;2675630;76;20320;-92
2023/05/09 13:38:39;;;;;;;;;;;24.57;102.47;;;;;;2674439;76;20347;-94
2023/05/09 13:42:10;;;;;;;;;;;24.38;101.90;;;;;;2675011;76;20828;-94
2023/05/09 13:45:41;;;;;;;;;;;24.41;102.01;;;;;;2674145;76;20357;-93
2023/05/09 13:49:11;;;;;;;;;;;24.56;101.45;;;;;;2674232;76;20324;-93
2023/05/09 13:52:54;;;;;;;;;;;;;;;;;;;;;
2023/05/09 13:56:30;;;;;;;;;;;24.80;100.99;;;;;;2674707;76;20693;-92
2023/05/09 14:00:03;;;;;;;;;;;24.92;100.45;;;;;;2675212;76;20327;-94
2023/05/09 14:03:33;;;;;;;;;;;24.95;99.74;;;;;;2675882;76;20443;-90
2023/05/09 14:07:01;;;;;;;;;;;25.15;99.31;;;;;;2674106;76;20328;-90
2023/05/09 14:10:32;;;;;;;;;;;25.37;99.38;;;;;;2674265;76;20306;-89
2023/05/09 14:14:00;;;;;;;;;;;25.74;98.71;;;;;;2674191;76;20761;-88
2023/05/09 14:17:28;;;;;;;;;;;26.53;97.79;;;;;;2673329;76;20306;-89
2023/05/09 14:20:56;;;;;;;;;;;30.33;94.37;;;;;;2673931;76;20306;-90
2023/05/09 14:24:25;;;;;;;;;;;33.96;88.24;;;;;;2673401;76;20368;-89
2023/05/09 14:27:53;;;;;;;;;;;34.97;80.94;;;;;;2673909;76;20317;-91
2023/05/09 14:31:39;;;;;;;;;;;36.58;80.57;;;;;;2672686;76;20338;-90
2023/05/09 14:35:03;;;;;;;;;;;;;;;;;;;;;
2023/05/09 14:38:26;;;;;;;;;;;37.88;73.31;;;;;;2674073;76;20330;-90
2023/05/09 14:41:56;;;;;;;;;;;37.91;72.43;;;;;;2673265;76;20360;-90
2023/05/09 14:45:25;;;;;;;;;;;37.18;71.78;;;;;;2673818;76;20772;-90
2023/05/09 14:49:01;;;;;;;;;;;36.57;71.98;;;;;;2676426;76;20403;-90
2023/05/09 14:52:25;;;;;;;;;;;37.34;70.90;;;;;;2675312;76;20338;-91
2023/05/09 14:56:13;;;;;;;;;;;37.69;68.18;;;;;;2674619;76;20362;-90
2023/05/09 14:59:31;;;;;;;;;;;37.95;66.67;;;;;;2674350;76;20404;-91
2023/05/09 15:03:03;;;;;;;;;;;37.88;67.30;;;;;;2674304;76;20382;-90
2023/05/09 15:06:38;;;;;;;;;;;36.70;67.03;;;;;;2673899;76;20384;-90
2023/05/09 15:10:16;;;;;;;;;;;37.35;67.49;;;;;;2674137;76;20366;-89
2023/05/09 15:13:42;;;;;;;;;;;38.28;66.78;;;;;;2674333;76;20337;-88
2023/05/09 15:17:15;;;;;;;;;;;38.55;65.58;;;;;;2671897;76;20346;-90
2023/05/09 15:20:43;;;;;;;;;;;38.29;64.27;;;;;;2674111;76;20349;-90
2023/05/09 15:27:50;;;;;;;;;;;36.45;65.12;;;;;;2672906;76;20320;-90
2023/05/09 15:31:20;;;;;;;;;;;36.39;65.72;;;;;;2674025;76;20325;-90
2023/05/09 15:34:50;;;;;;;;;;;36.63;65.15;;;;;;2673874;76;20379;-91
2023/05/09 15:38:18;;;;;;;;;;;36.42;64.21;;;;;;2674514;76;20356;-92
2023/05/09 15:41:49;;;;;;;;;;;35.99;64.82;;;;;;2673896;76;20722;-91
2023/05/09 15:45:17;;;;;;;;;;;36.18;65.41;;;;;;2674585;76;20767;-90
2023/05/09 15:48:46;;;;;;;;;;;35.60;65.85;;;;;;2674400;76;20628;-92
2023/05/09 15:52:17;;;;;;;;;;;34.64;66.54;;;;;;2675135;76;21046;-92
2023/05/09 15:55:45;;;;;;;;;;;33.03;68.35;;;;;;2674363;76;20377;-91
2023/05/09 15:59:13;;;;;;;;;;;32.76;69.76;;;;;;2674125;76;20341;-91
2023/05/09 16:02:56;;;;;;;;;;;32.83;69.10;;;;;;2674156;76;20403;-90
2023/05/09 16:06:11;;;;;;;;;;;31.31;71.51;;;;;;2673338;76;20814;-90
2023/05/09 16:09:40;;;;;;;;;;;30.17;74.04;;;;;;2673229;76;20355;-91
2023/05/09 16:13:08;;;;;;;;;;;28.74;76.60;;;;;;2675133;76;20363;-90
2023/05/09 16:16:36;;;;;;;;;;;28.58;77.65;;;;;;2674316;76;20355;-91
2023/05/09 16:20:04;;;;;;;;;;;27.90;79.37;;;;;;2674131;76;20475;-91
2023/05/09 16:23:32;;;;;;;;;;;27.34;80.82;;;;;;2674626;76;20399;-91
2023/05/09 16:27:03;;;;;;;;;;;26.97;82.59;;;;;;2674598;76;20340;-91
2023/05/09 16:30:32;;;;;;;;;;;26.25;84.05;;;;;;2674289;76;20467;-91
2023/05/09 16:34:00;;;;;;;;;;;25.86;85.31;;;;;;2673663;76;20319;-89
2023/05/09 16:37:28;;;;;;;;;;;25.12;86.90;;;;;;2675411;76;20412;-90
2023/05/09 16:40:56;;;;;;;;;;;24.73;87.77;;;;;;2676088;76;20335;-91
2023/05/09 16:44:27;;;;;;;;;;;24.28;89.09;;;;;;2674241;76;20352;-91
2023/05/09 16:47:56;;;;;;;;;;;24.01;90.44;;;;;;2674430;76;20322;-91
2023/05/09 16:51:24;;;;;;;;;;;23.81;91.25;;;;;;2674171;76;20439;-91
2023/05/09 16:54:53;;;;;;;;;;;23.77;91.63;;;;;;2673213;76;20817;-91
2023/05/09 16:58:21;;;;;;;;;;;23.66;92.46;;;;;;2674310;76;20344;-90
2023/05/09 17:01:49;;;;;;;;;;;23.77;93.24;;;;;;2673983;76;20459;-91
2023/05/09 17:05:17;;;;;;;;;;;23.71;93.41;;;;;;2674149;76;20324;-90
2023/05/09 17:08:48;;;;;;;;;;;23.73;93.91;;;;;;2674419;76;20330;-91
2023/05/09 17:12:17;;;;;;;;;;;23.49;94.68;;;;;;2674169;76;20348;-91
2023/05/09 17:15:45;;;;;;;;;;;23.29;95.22;;;;;;2674473;76;20348;-90
2023/05/09 17:19:14;;;;;;;;;;;22.88;95.55;;;;;;2674105;76;20337;-90
2023/05/09 17:22:42;;;;;;;;;;;22.62;96.27;;;;;;2674566;76;20332;-90
2023/05/09 17:26:10;;;;;;;;;;;22.34;96.97;;;;;;2674408;76;20337;-90
2023/05/09 17:29:39;;;;;;;;;;;22.05;98.01;;;;;;2674522;76;20322;-91
2023/05/09 17:36:53;;;;;;;;;;;21.50;99.99;;;;;;2671877;76;20350;-91
2023/05/09 17:40:21;;;;;;;;;;;21.22;101.32;;;;;;2673891;76;20368;-88
2023/05/09 17:43:50;;;;;;;;;;;20.92;102.35;;;;;;2673826;76;20313;-90
2023/05/09 17:47:18;;;;;;;;;;;20.65;103.43;;;;;;2674109;76;20308;-90
2023/05/09 17:50:46;;;;;;;;;;;20.40;104.86;;;;;;2673600;76;20756;-90
2023/05/09 17:54:17;;;;;;;;;;;20.21;105.66;;;;;;2673034;76;20765;-89
2023/05/09 17:57:44;;;;;;;;;;;19.91;106.94;;;;;;2674114;76;20355;-90
2023/05/09 18:01:14;;;;;;;;;;;19.79;107.81;;;;;;2673685;76;20334;-90
2023/05/09 18:04:44;;;;;;;;;;;19.58;108.31;;;;;;2673801;76;20365;-90
2023/05/09 18:08:12;;;;;;;;;;;19.41;109.16;;;;;;2674334;76;20304;-90
2023/05/09 18:11:40;;;;;;;;;;;19.23;109.43;;;;;;2673900;76;20402;-90
2023/05/09 18:15:09;;;;;;;;;;;19.06;110.35;;;;;;2674522;76;20308;-90
2023/05/09 18:18:37;;;;;;;;;;;18.86;110.64;;;;;;2674763;76;20388;-90
2023/05/09 18:22:05;;;;;;;;;;;18.73;111.12;;;;;;2674740;76;20307;-90
2023/05/09 18:25:37;;;;;;;;;;;18.56;110.86;;;;;;2675386;76;20317;-90
2023/05/09 18:29:05;;;;;;;;;;;18.49;110.93;;;;;;2675773;76;20299;-90
2023/05/09 18:32:33;;;;;;;;;;;18.40;111.00;;;;;;2679228;76;20328;-90
2023/05/09 18:36:01;;;;;;;;;;;18.36;111.35;;;;;;2678594;76;20365;-90
2023/05/09 18:39:30;;;;;;;;;;;18.27;111.35;;;;;;2675261;76;20337;-90
2023/05/09 18:43:00;;;;;;;;;;;18.20;111.50;;;;;;2674991;76;20350;-90
2023/05/09 18:46:30;;;;;;;;;;;18.08;112.27;;;;;;2675159;76;20326;-90
2023/05/09 18:49:58;;;;;;;;;;;18.04;113.03;;;;;;2675102;76;20349;-89
2023/05/09 18:53:27;;;;;;;;;;;17.96;113.27;;;;;;2675451;76;20479;-90
2023/05/09 18:56:55;;;;;;;;;;;17.93;113.36;;;;;;2672263;76;20505;-89
2023/05/09 19:00:24;;;;;;;;;;;17.82;113.51;;;;;;2673650;76;20352;-90
2023/05/09 19:03:54;;;;;;;;;;;17.79;113.58;;;;;;2674184;76;20352;-91
2023/05/09 19:07:22;;;;;;;;;;;17.72;113.51;;;;;;2675294;76;20341;-90
2023/05/09 19:10:50;;;;;;;;;;;17.69;113.51;;;;;;2674364;76;20348;-90
2023/05/09 19:14:21;;;;;;;;;;;17.62;113.54;;;;;;2673537;76;20329;-90
2023/05/09 19:17:49;;;;;;;;;;;17.59;113.69;;;;;;2674030;76;20478;-90
2023/05/09 19:21:18;;;;;;;;;;;17.50;113.63;;;;;;2673517;76;20415;-91
2023/05/09 19:24:52;;;;;;;;;;;17.51;113.61;;;;;;2674348;76;20352;-90
2023/05/09 19:28:21;;;;;;;;;;;17.43;113.60;;;;;;2674143;76;20332;-89
2023/05/09 19:31:50;;;;;;;;;;;17.46;113.62;;;;;;2672649;76;20339;-88
2023/05/09 19:35:18;;;;;;;;;;;17.43;113.67;;;;;;2673753;76;20369;-90
2023/05/09 19:38:46;;;;;;;;;;;17.38;113.46;;;;;;2674141;76;20813;-87
2023/05/09 19:42:14;;;;;;;;;;;17.33;113.57;;;;;;2673122;76;20325;-88
2023/05/09 19:45:42;;;;;;;;;;;17.30;113.58;;;;;;2674086;76;20331;-88
2023/05/09 19:49:10;;;;;;;;;;;17.22;113.80;;;;;;2674391;76;20373;-88
2023/05/09 19:52:38;;;;;;;;;;;17.17;113.68;;;;;;2673464;76;20330;-89
2023/05/09 19:56:07;;;;;;;;;;;17.10;114.02;;;;;;2673284;76;20341;-89
2023/05/09 19:59:37;;;;;;;;;;;17.06;114.20;;;;;;2672763;76;20365;-89
2023/05/09 20:03:05;;;;;;;;;;;17.01;114.18;;;;;;2673083;76;20340;-88
2023/05/09 20:06:33;;;;;;;;;;;16.99;114.32;;;;;;2672817;76;20690;-88
2023/05/09 20:10:01;;;;;;;;;;;16.96;114.50;;;;;;2673636;76;20802;-88
2023/05/09 20:13:29;;;;;;;;;;;16.91;114.41;;;;;;2672972;76;20774;-92
2023/05/09 20:16:57;;;;;;;;;;;16.90;114.37;;;;;;2673021;76;20358;-90
2023/05/09 20:20:25;;;;;;;;;;;16.88;114.41;;;;;;2674079;76;20399;-90
2023/05/09 20:23:53;;;;;;;;;;;16.87;114.48;;;;;;2673693;76;20307;-91
2023/05/09 20:27:22;;;;;;;;;;;16.88;114.37;;;;;;2674241;76;20363;-90
2023/05/09 20:30:50;;;;;;;;;;;16.89;114.32;;;;;;2674143;76;20337;-90
2023/05/09 20:34:20;;;;;;;;;;;16.94;114.22;;;;;;2674231;76;20354;-91